sensor_id;sensor_type;location;lat;lon;timestamp;pressure;altitude;pressure_sealevel;temperature;humidity
54910;BME280;63189;51.240;9.964;2024-02-21T00:00:49;98472.47;;;6.04;100.00
54910;BME280;63189;51.240;9.964;2024-02-21T00:03:14;98483.72;;;5.96;100.00
54910;BME280;63189;51.240;9.964;2024-02-21T00:05:40;98465.63;;;5.94;100.00
54910;BME280;63189;51.240;9.964;2024-02-21T00:08:05;98475.09;;;5.97;100.00
54910;BME280;63189;51.240;9.964;2024-02-21T00:10:31;98483.69;;;5.99;100.00
54910;BME280;63189;51.240;9.964;2024-02-21T00:12:57;98481.97;;;5.98;100.00
54910;BME280;63189;51.240;9.964;2024-02-21T00:15:25;98475.94;;;5.97;100.00
54910;BME280;63189;51.240;9.964;2024-02-21T00:17:50;98459.53;;;6.01;100.00
54910;BME280;63189;51.240;9.964;2024-02-21T00:20:15;98449.19;;;6.04;100.00
54910;BME280;63189;51.240;9.964;2024-02-21T00:22:41;98443.13;;;6.05;100.00
54910;BME280;63189;51.240;9.964;2024-02-21T00:25:06;98457.78;;;6.06;100.00
54910;BME280;63189;51.240;9.964;2024-02-21T00:27:32;98456.94;;;6.01;100.00
54910;BME280;63189;51.240;9.964;2024-02-21T00:29:57;98464.72;;;5.98;100.00
54910;BME280;63189;51.240;9.964;2024-02-21T00:32:23;98446.63;;;5.92;100.00
54910;BME280;63189;51.240;9.964;2024-02-21T00:34:48;98453.53;;;5.90;100.00
54910;BME280;63189;51.240;9.964;2024-02-21T00:37:13;98440.59;;;5.86;100.00
54910;BME280;63189;51.240;9.964;2024-02-21T00:39:38;98453.53;;;5.87;100.00
54910;BME280;63189;51.240;9.964;2024-02-21T00:42:04;98474.22;;;5.87;100.00
54910;BME280;63189;51.240;9.964;2024-02-21T00:44:30;98474.22;;;5.83;100.00
54910;BME280;63189;51.240;9.964;2024-02-21T00:46:55;98481.13;;;5.88;100.00
54910;BME280;63189;51.240;9.964;2024-02-21T00:49:20;98479.41;;;5.90;100.00
54910;BME280;63189;51.240;9.964;2024-02-21T00:51:46;98488.00;;;5.98;100.00
54910;BME280;63189;51.240;9.964;2024-02-21T00:54:12;98481.13;;;5.96;100.00
54910;BME280;63189;51.240;9.964;2024-02-21T00:56:37;98463.88;;;5.93;100.00
54910;BME280;63189;51.240;9.964;2024-02-21T00:59:02;98473.38;;;5.94;100.00
54910;BME280;63189;51.240;9.964;2024-02-21T01:01:27;98466.47;;;5.95;100.00
54910;BME280;63189;51.240;9.964;2024-02-21T01:03:53;98453.53;;;5.87;100.00
54910;BME280;63189;51.240;9.964;2024-02-21T01:06:19;98453.53;;;5.92;100.00
54910;BME280;63189;51.240;9.964;2024-02-21T01:08:46;98453.53;;;5.90;100.00
54910;BME280;63189;51.240;9.964;2024-02-21T01:11:12;98438.03;;;5.78;100.00
54910;BME280;63189;51.240;9.964;2024-02-21T01:13:37;98442.34;;;5.84;100.00
54910;BME280;63189;51.240;9.964;2024-02-21T01:16:03;98438.00;;;5.81;100.00
54910;BME280;63189;51.240;9.964;2024-02-21T01:18:28;98442.34;;;5.84;100.00
54910;BME280;63189;51.240;9.964;2024-02-21T01:20:53;98451.81;;;5.80;100.00
54910;BME280;63189;51.240;9.964;2024-02-21T01:23:19;98443.19;;;5.81;100.00
54910;BME280;63189;51.240;9.964;2024-02-21T01:25:44;98446.63;;;5.82;100.00
54910;BME280;63189;51.240;9.964;2024-02-21T01:28:09;98444.06;;;5.78;100.00
54910;BME280;63189;51.240;9.964;2024-02-21T01:30:35;98441.44;;;5.82;100.00
54910;BME280;63189;51.240;9.964;2024-02-21T01:33:00;98438.00;;;5.81;100.00
54910;BME280;63189;51.240;9.964;2024-02-21T01:35:25;98436.28;;;5.80;100.00
54910;BME280;63189;51.240;9.964;2024-02-21T01:37:51;98424.22;;;5.80;100.00
54910;BME280;63189;51.240;9.964;2024-02-21T01:40:17;98432.84;;;5.78;100.00
54910;BME280;63189;51.240;9.964;2024-02-21T01:42:42;98423.34;;;5.78;100.00
54910;BME280;63189;51.240;9.964;2024-02-21T01:45:08;98426.78;;;5.82;100.00
54910;BME280;63189;51.240;9.964;2024-02-21T01:47:34;98423.38;;;5.74;100.00
54910;BME280;63189;51.240;9.964;2024-02-21T01:49:59;98416.47;;;5.73;100.00
54910;BME280;63189;51.240;9.964;2024-02-21T01:52:26;98406.13;;;5.71;100.00
54910;BME280;63189;51.240;9.964;2024-02-21T01:54:52;98418.22;;;5.75;100.00
54910;BME280;63189;51.240;9.964;2024-02-21T01:57:18;98396.66;;;5.69;100.00
54910;BME280;63189;51.240;9.964;2024-02-21T01:59:43;98398.34;;;5.73;100.00
54910;BME280;63189;51.240;9.964;2024-02-21T02:02:08;98390.63;;;5.70;100.00
54910;BME280;63189;51.240;9.964;2024-02-21T02:04:34;98401.84;;;5.69;100.00
54910;BME280;63189;51.240;9.964;2024-02-21T02:07:02;98388.91;;;5.67;100.00
54910;BME280;63189;51.240;9.964;2024-02-21T02:09:29;98394.97;;;5.66;100.00
54910;BME280;63189;51.240;9.964;2024-02-21T02:11:54;98375.13;;;5.67;100.00
54910;BME280;63189;51.240;9.964;2024-02-21T02:14:19;98387.19;;;5.66;100.00
54910;BME280;63189;51.240;9.964;2024-02-21T02:16:48;98385.50;;;5.64;100.00
54910;BME280;63189;51.240;9.964;2024-02-21T02:19:13;98389.78;;;5.62;100.00
54910;BME280;63189;51.240;9.964;2024-02-21T02:21:46;98393.25;;;5.61;100.00
54910;BME280;63189;51.240;9.964;2024-02-21T02:24:13;98385.50;;;5.64;100.00
54910;BME280;63189;51.240;9.964;2024-02-21T02:26:39;98383.75;;;5.64;100.00
54910;BME280;63189;51.240;9.964;2024-02-21T02:29:05;98387.19;;;5.69;100.00
54910;BME280;63189;51.240;9.964;2024-02-21T02:31:30;98379.41;;;5.71;100.00
54910;BME280;63189;51.240;9.964;2024-02-21T02:33:55;98382.84;;;5.74;100.00
54910;BME280;63189;51.240;9.964;2024-02-21T02:36:21;98369.94;;;5.68;100.00
54910;BME280;63189;51.240;9.964;2024-02-21T02:38:46;98372.53;;;5.67;100.00
54910;BME280;63189;51.240;9.964;2024-02-21T02:41:11;98363.03;;;5.70;100.00
54910;BME280;63189;51.240;9.964;2024-02-21T02:43:36;98355.25;;;5.72;100.00
54910;BME280;63189;51.240;9.964;2024-02-21T02:46:02;98338.88;;;5.68;100.00
54910;BME280;63189;51.240;9.964;2024-02-21T02:48:28;98343.22;;;5.68;100.00
54910;BME280;63189;51.240;9.964;2024-02-21T02:50:54;98331.16;;;5.67;100.00
54910;BME280;63189;51.240;9.964;2024-02-21T02:53:19;98333.75;;;5.65;100.00
54910;BME280;63189;51.240;9.964;2024-02-21T02:55:44;98319.97;;;5.63;100.00
54910;BME280;63189;51.240;9.964;2024-02-21T02:58:10;98315.66;;;5.58;100.00
54910;BME280;63189;51.240;9.964;2024-02-21T03:00:35;98316.50;;;5.63;100.00
54910;BME280;63189;51.240;9.964;2024-02-21T03:03:01;98319.09;;;5.63;100.00
54910;BME280;63189;51.240;9.964;2024-02-21T03:05:30;98315.63;;;5.61;100.00
54910;BME280;63189;51.240;9.964;2024-02-21T03:07:55;98309.59;;;5.62;100.00
54910;BME280;63189;51.240;9.964;2024-02-21T03:10:21;98313.88;;;5.67;100.00
54910;BME280;63189;51.240;9.964;2024-02-21T03:12:46;98311.31;;;5.66;100.00
54910;BME280;63189;51.240;9.964;2024-02-21T03:15:13;98315.59;;;5.68;100.00
54910;BME280;63189;51.240;9.964;2024-02-21T03:17:39;98319.94;;;5.68;100.00
54910;BME280;63189;51.240;9.964;2024-02-21T03:20:05;98326.81;;;5.69;100.00
54910;BME280;63189;51.240;9.964;2024-02-21T03:22:33;98301.84;;;5.65;100.00
54910;BME280;63189;51.240;9.964;2024-02-21T03:24:58;98297.53;;;5.65;100.00
54910;BME280;63189;51.240;9.964;2024-02-21T03:27:24;98307.00;;;5.68;100.00
54910;BME280;63189;51.240;9.964;2024-02-21T03:29:49;98297.47;;;5.71;100.00
54910;BME280;63189;51.240;9.964;2024-02-21T03:32:14;98292.28;;;5.76;100.00
54910;BME280;63189;51.240;9.964;2024-02-21T03:34:40;98300.94;;;5.73;100.00
54910;BME280;63189;51.240;9.964;2024-02-21T03:37:05;98292.31;;;5.74;100.00
54910;BME280;63189;51.240;9.964;2024-02-21T03:39:31;98289.72;;;5.74;100.00
54910;BME280;63189;51.240;9.964;2024-02-21T03:41:57;98284.53;;;5.73;100.00
54910;BME280;63189;51.240;9.964;2024-02-21T03:44:23;98298.34;;;5.69;100.00
54910;BME280;63189;51.240;9.964;2024-02-21T03:46:48;98295.75;;;5.70;100.00
54910;BME280;63189;51.240;9.964;2024-02-21T03:49:13;98307.81;;;5.73;100.00
54910;BME280;63189;51.240;9.964;2024-02-21T03:51:39;98304.41;;;5.66;100.00
54910;BME280;63189;51.240;9.964;2024-02-21T03:54:04;98308.69;;;5.72;100.00
54910;BME280;63189;51.240;9.964;2024-02-21T03:56:29;98313.84;;;5.78;100.00
54910;BME280;63189;51.240;9.964;2024-02-21T03:58:55;98321.59;;;5.79;100.00
54910;BME280;63189;51.240;9.964;2024-02-21T04:01:20;98312.97;;;5.77;100.00
54910;BME280;63189;51.240;9.964;2024-02-21T04:03:46;98314.69;;;5.80;100.00
54910;BME280;63189;51.240;9.964;2024-02-21T04:06:11;98303.47;;;5.81;100.00
54910;BME280;63189;51.240;9.964;2024-02-21T04:08:37;98307.78;;;5.79;100.00
54910;BME280;63189;51.240;9.964;2024-02-21T04:11:02;98298.28;;;5.84;100.00
54910;BME280;63189;51.240;9.964;2024-02-21T04:13:28;98309.50;;;5.85;100.00
54910;BME280;63189;51.240;9.964;2024-02-21T04:15:53;98298.28;;;5.81;100.00
54910;BME280;63189;51.240;9.964;2024-02-21T04:18:18;98309.50;;;5.82;100.00
54910;BME280;63189;51.240;9.964;2024-02-21T04:20:44;98294.84;;;5.84;100.00
54910;BME280;63189;51.240;9.964;2024-02-21T04:23:09;98287.94;;;5.84;100.00
54910;BME280;63189;51.240;9.964;2024-02-21T04:25:35;98276.72;;;5.84;100.00
54910;BME280;63189;51.240;9.964;2024-02-21T04:28:01;98281.88;;;5.82;100.00
54910;BME280;63189;51.240;9.964;2024-02-21T04:30:26;98256.91;;;5.78;100.00
54910;BME280;63189;51.240;9.964;2024-02-21T04:32:51;98249.09;;;5.83;100.00
54910;BME280;63189;51.240;9.964;2024-02-21T04:35:17;98251.72;;;5.84;100.00
54910;BME280;63189;51.240;9.964;2024-02-21T04:37:42;98257.75;;;5.85;100.00
54910;BME280;63189;51.240;9.964;2024-02-21T04:40:08;98231.88;;;5.82;100.00
54910;BME280;63189;51.240;9.964;2024-02-21T04:42:34;98225.00;;;5.79;100.00
54910;BME280;63189;51.240;9.964;2024-02-21T04:44:59;98231.00;;;5.81;100.00
54910;BME280;63189;51.240;9.964;2024-02-21T04:47:24;98231.06;;;5.75;100.00
54910;BME280;63189;51.240;9.964;2024-02-21T04:49:50;98239.72;;;5.74;100.00
54910;BME280;63189;51.240;9.964;2024-02-21T04:52:15;98224.19;;;5.71;100.00
54910;BME280;63189;51.240;9.964;2024-02-21T04:54:41;98223.31;;;5.72;100.00
54910;BME280;63189;51.240;9.964;2024-02-21T04:57:06;98217.31;;;5.67;100.00
54910;BME280;63189;51.240;9.964;2024-02-21T04:59:32;98221.63;;;5.69;100.00
54910;BME280;63189;51.240;9.964;2024-02-21T05:01:57;98222.47;;;5.70;100.00
54910;BME280;63189;51.240;9.964;2024-02-21T05:04:24;98217.28;;;5.70;100.00
54910;BME280;63189;51.240;9.964;2024-02-21T05:06:49;98223.31;;;5.70;100.00
54910;BME280;63189;51.240;9.964;2024-02-21T05:09:14;98215.56;;;5.72;100.00
54910;BME280;63189;51.240;9.964;2024-02-21T05:11:40;98211.25;;;5.69;100.00
54910;BME280;63189;51.240;9.964;2024-02-21T05:14:05;98219.84;;;5.73;100.00
54910;BME280;63189;51.240;9.964;2024-02-21T05:16:31;98226.75;;;5.75;100.00
54910;BME280;63189;51.240;9.964;2024-02-21T05:18:56;98220.72;;;5.75;100.00
54910;BME280;63189;51.240;9.964;2024-02-21T05:21:25;98211.22;;;5.75;100.00
54910;BME280;63189;51.240;9.964;2024-02-21T05:23:51;98218.97;;;5.77;100.00
54910;BME280;63189;51.240;9.964;2024-02-21T05:26:24;98231.00;;;5.81;100.00
54910;BME280;63189;51.240;9.964;2024-02-21T05:28:49;98219.81;;;5.80;100.00
54910;BME280;63189;51.240;9.964;2024-02-21T05:31:18;98217.25;;;5.77;100.00
54910;BME280;63189;51.240;9.964;2024-02-21T05:33:45;98215.53;;;5.78;100.00
54910;BME280;63189;51.240;9.964;2024-02-21T05:36:11;98221.59;;;5.75;100.00
54910;BME280;63189;51.240;9.964;2024-02-21T05:38:36;98217.25;;;5.76;100.00
54910;BME280;63189;51.240;9.964;2024-02-21T05:41:02;98227.59;;;5.77;100.00
54910;BME280;63189;51.240;9.964;2024-02-21T05:43:27;98229.31;;;5.77;100.00
54910;BME280;63189;51.240;9.964;2024-02-21T05:45:53;98234.53;;;5.75;100.00
54910;BME280;63189;51.240;9.964;2024-02-21T05:48:18;98244.03;;;5.70;100.00
54910;BME280;63189;51.240;9.964;2024-02-21T05:50:43;98244.88;;;5.71;100.00
54910;BME280;63189;51.240;9.964;2024-02-21T05:53:09;98250.91;;;5.76;100.00
54910;BME280;63189;51.240;9.964;2024-02-21T05:55:35;98256.91;;;5.78;100.00
54910;BME280;63189;51.240;9.964;2024-02-21T05:58:00;98261.22;;;5.77;100.00
54910;BME280;63189;51.240;9.964;2024-02-21T06:00:26;98264.66;;;5.81;100.00
54910;BME280;63189;51.240;9.964;2024-02-21T06:02:51;98255.16;;;5.80;100.00
54910;BME280;63189;51.240;9.964;2024-02-21T06:05:16;98265.53;;;5.80;100.00
54910;BME280;63189;51.240;9.964;2024-02-21T06:07:42;98259.47;;;5.79;100.00
54910;BME280;63189;51.240;9.964;2024-02-21T06:10:09;98259.47;;;5.86;100.00
54910;BME280;63189;51.240;9.964;2024-02-21T06:12:34;98262.06;;;5.81;100.00
54910;BME280;63189;51.240;9.964;2024-02-21T06:14:59;98276.72;;;5.82;100.00
54910;BME280;63189;51.240;9.964;2024-02-21T06:17:25;98263.78;;;5.85;100.00
54910;BME280;63189;51.240;9.964;2024-02-21T06:19:50;98260.34;;;5.80;100.00
54910;BME280;63189;51.240;9.964;2024-02-21T06:22:15;98249.97;;;5.83;100.00
54910;BME280;63189;51.240;9.964;2024-02-21T06:24:41;98266.38;;;5.80;100.00
54910;BME280;63189;51.240;9.964;2024-02-21T06:27:06;98240.50;;;5.82;100.00
54910;BME280;63189;51.240;9.964;2024-02-21T06:29:32;98248.31;;;5.76;100.00
54910;BME280;63189;51.240;9.964;2024-02-21T06:31:58;98247.41;;;5.80;100.00
54910;BME280;63189;51.240;9.964;2024-02-21T06:34:23;98238.78;;;5.81;100.00
54910;BME280;63189;51.240;9.964;2024-02-21T06:36:49;98237.03;;;5.85;100.00
54910;BME280;63189;51.240;9.964;2024-02-21T06:39:15;98227.59;;;5.77;100.00
54910;BME280;63189;51.240;9.964;2024-02-21T06:41:40;98242.19;;;5.86;100.00
54910;BME280;63189;51.240;9.964;2024-02-21T06:44:05;98234.41;;;5.89;100.00
54910;BME280;63189;51.240;9.964;2024-02-21T06:46:31;98226.66;;;5.92;100.00
54910;BME280;63189;51.240;9.964;2024-02-21T06:48:59;98230.09;;;5.96;100.00
54910;BME280;63189;51.240;9.964;2024-02-21T06:51:29;98230.94;;;5.96;100.00
54910;BME280;63189;51.240;9.964;2024-02-21T06:53:54;98230.09;;;5.96;100.00
54910;BME280;63189;51.240;9.964;2024-02-21T06:56:20;98224.91;;;5.97;100.00
54910;BME280;63189;51.240;9.964;2024-02-21T06:58:45;98232.69;;;5.96;100.00
54910;BME280;63189;51.240;9.964;2024-02-21T07:01:11;98233.53;;;5.98;100.00
54910;BME280;63189;51.240;9.964;2024-02-21T07:03:36;98221.44;;;5.97;100.00
54910;BME280;63189;51.240;9.964;2024-02-21T07:06:02;98223.13;;;6.01;100.00
54910;BME280;63189;51.240;9.964;2024-02-21T07:08:28;98228.38;;;5.96;100.00
54910;BME280;63189;51.240;9.964;2024-02-21T07:10:53;98230.06;;;5.97;100.00
54910;BME280;63189;51.240;9.964;2024-02-21T07:13:19;98223.19;;;5.96;100.00
54910;BME280;63189;51.240;9.964;2024-02-21T07:15:44;98224.84;;;6.02;100.00
54910;BME280;63189;51.240;9.964;2024-02-21T07:18:09;98225.69;;;6.05;100.00
54910;BME280;63189;51.240;9.964;2024-02-21T07:20:35;98222.25;;;6.03;100.00
54910;BME280;63189;51.240;9.964;2024-02-21T07:23:03;98213.63;;;6.01;100.00
54910;BME280;63189;51.240;9.964;2024-02-21T07:25:28;98216.22;;;6.04;100.00
54910;BME280;63189;51.240;9.964;2024-02-21T07:27:53;98222.25;;;6.03;100.00
54910;BME280;63189;51.240;9.964;2024-02-21T07:30:19;98195.56;;;5.98;100.00
54910;BME280;63189;51.240;9.964;2024-02-21T07:32:44;98197.22;;;6.05;100.00
54910;BME280;63189;51.240;9.964;2024-02-21T07:35:10;98207.56;;;6.04;100.00
54910;BME280;63189;51.240;9.964;2024-02-21T07:37:37;98206.72;;;6.03;100.00
54910;BME280;63189;51.240;9.964;2024-02-21T07:40:04;98200.69;;;6.03;100.00
54910;BME280;63189;51.240;9.964;2024-02-21T07:42:30;98200.72;;;6.00;100.00
54910;BME280;63189;51.240;9.964;2024-02-21T07:44:55;98204.13;;;6.02;100.00
54910;BME280;63189;51.240;9.964;2024-02-21T07:47:22;98201.53;;;6.03;100.00
54910;BME280;63189;51.240;9.964;2024-02-21T07:49:47;98197.28;;;5.99;100.00
54910;BME280;63189;51.240;9.964;2024-02-21T07:52:14;98199.81;;;6.02;100.00
54910;BME280;63189;51.240;9.964;2024-02-21T07:54:39;98202.44;;;6.01;100.00
54910;BME280;63189;51.240;9.964;2024-02-21T07:57:04;98199.84;;;5.99;100.00
54910;BME280;63189;51.240;9.964;2024-02-21T07:59:30;98185.19;;;5.98;100.00
54910;BME280;63189;51.240;9.964;2024-02-21T08:01:56;98192.97;;;5.98;100.00
54910;BME280;63189;51.240;9.964;2024-02-21T08:04:22;98187.78;;;5.98;100.00
54910;BME280;63189;51.240;9.964;2024-02-21T08:06:53;98177.47;;;5.95;100.00
54910;BME280;63189;51.240;9.964;2024-02-21T08:09:20;98185.16;;;6.03;100.00
54910;BME280;63189;51.240;9.964;2024-02-21T08:11:46;98178.31;;;5.97;100.00
54910;BME280;63189;51.240;9.964;2024-02-21T08:14:11;98181.69;;;6.05;100.00
54910;BME280;63189;51.240;9.964;2024-02-21T08:16:36;98183.34;;;6.11;100.00
54910;BME280;63189;51.240;9.964;2024-02-21T08:19:02;98184.16;;;6.18;100.00
54910;BME280;63189;51.240;9.964;2024-02-21T08:21:29;98187.56;;;6.21;100.00
54910;BME280;63189;51.240;9.964;2024-02-21T08:23:54;98172.91;;;6.20;100.00
54910;BME280;63189;51.240;9.964;2024-02-21T08:26:20;98179.75;;;6.29;100.00
54910;BME280;63189;51.240;9.964;2024-02-21T08:28:45;98171.03;;;6.34;100.00
54910;BME280;63189;51.240;9.964;2024-02-21T08:31:10;98169.41;;;6.27;100.00
54910;BME280;63189;51.240;9.964;2024-02-21T08:33:36;98172.75;;;6.35;100.00
54910;BME280;63189;51.240;9.964;2024-02-21T08:36:01;98171.78;;;6.47;100.00
54910;BME280;63189;51.240;9.964;2024-02-21T08:38:26;98172.63;;;6.51;100.00
54910;BME280;63189;51.240;9.964;2024-02-21T08:40:52;98159.69;;;6.49;100.00
54910;BME280;63189;51.240;9.964;2024-02-21T08:43:17;98172.16;;;6.90;100.00
54910;BME280;63189;51.240;9.964;2024-02-21T08:45:43;98155.53;;;7.05;100.00
54910;BME280;63189;51.240;9.964;2024-02-21T08:48:08;98152.91;;;7.10;99.31
54910;BME280;63189;51.240;9.964;2024-02-21T08:50:33;98142.13;;;7.37;98.66
54910;BME280;63189;51.240;9.964;2024-02-21T08:52:58;98140.78;;;7.67;96.29
54910;BME280;63189;51.240;9.964;2024-02-21T08:55:24;98133.97;;;7.60;93.78
54910;BME280;63189;51.240;9.964;2024-02-21T08:57:49;98115.31;;;7.38;95.47
54910;BME280;63189;51.240;9.964;2024-02-21T09:00:15;98136.13;;;7.34;93.24
54910;BME280;63189;51.240;9.964;2024-02-21T09:02:41;98135.34;;;7.27;94.56
54910;BME280;63189;51.240;9.964;2024-02-21T09:05:10;98135.47;;;7.18;94.64
54910;BME280;63189;51.240;9.964;2024-02-21T09:07:36;98138.00;;;7.24;94.96
54910;BME280;63189;51.240;9.964;2024-02-21T09:10:01;98135.63;;;7.07;93.02
54910;BME280;63189;51.240;9.964;2024-02-21T09:12:27;98133.09;;;7.04;92.93
54910;BME280;63189;51.240;9.964;2024-02-21T09:14:52;98123.25;;;7.28;94.37
54910;BME280;63189;51.240;9.964;2024-02-21T09:17:17;98124.03;;;7.33;92.14
54910;BME280;63189;51.240;9.964;2024-02-21T09:19:44;98122.84;;;7.55;90.27
54910;BME280;63189;51.240;9.964;2024-02-21T09:22:09;98110.16;;;7.89;88.61
54910;BME280;63189;51.240;9.964;2024-02-21T09:24:35;98108.00;;;8.14;89.18
54910;BME280;63189;51.240;9.964;2024-02-21T09:27:00;98103.47;;;8.22;87.32
54910;BME280;63189;51.240;9.964;2024-02-21T09:29:25;98098.13;;;8.31;85.66
54910;BME280;63189;51.240;9.964;2024-02-21T09:31:51;98096.41;;;8.30;84.92
54910;BME280;63189;51.240;9.964;2024-02-21T09:34:16;98096.28;;;8.39;84.77
54910;BME280;63189;51.240;9.964;2024-02-21T09:36:41;98085.03;;;8.39;84.85
54910;BME280;63189;51.240;9.964;2024-02-21T09:39:07;98077.84;;;8.52;85.83
54910;BME280;63189;51.240;9.964;2024-02-21T09:41:36;98077.63;;;8.62;83.81
54910;BME280;63189;51.240;9.964;2024-02-21T09:44:05;98076.00;;;8.57;83.92
54910;BME280;63189;51.240;9.964;2024-02-21T09:47:02;98070.84;;;8.55;83.83
54910;BME280;63189;51.240;9.964;2024-02-21T09:49:35;98068.78;;;8.71;84.34
54910;BME280;63189;51.240;9.964;2024-02-21T09:52:04;98066.88;;;8.79;82.97
54910;BME280;63189;51.240;9.964;2024-02-21T09:54:35;98072.06;;;8.79;82.67
54910;BME280;63189;51.240;9.964;2024-02-21T09:57:04;98075.06;;;8.61;82.90
54910;BME280;63189;51.240;9.964;2024-02-21T09:59:32;98073.44;;;8.54;82.76
54910;BME280;63189;51.240;9.964;2024-02-21T10:01:57;98067.28;;;8.59;84.00
54910;BME280;63189;51.240;9.964;2024-02-21T10:04:25;98060.69;;;8.45;83.57
54910;BME280;63189;51.240;9.964;2024-02-21T10:06:51;98070.06;;;8.50;84.22
54910;BME280;63189;51.240;9.964;2024-02-21T10:09:20;98069.47;;;8.37;82.66
54910;BME280;63189;51.240;9.964;2024-02-21T10:11:48;98063.28;;;8.45;85.03
54910;BME280;63189;51.240;9.964;2024-02-21T10:14:13;98076.44;;;8.34;83.61
54910;BME280;63189;51.240;9.964;2024-02-21T10:16:40;98069.47;;;8.37;83.80
54910;BME280;63189;51.240;9.964;2024-02-21T10:19:06;98064.00;;;8.51;84.94
54910;BME280;63189;51.240;9.964;2024-02-21T10:21:31;98071.81;;;8.50;84.38
54910;BME280;63189;51.240;9.964;2024-02-21T10:23:56;98074.19;;;8.60;83.76
54910;BME280;63189;51.240;9.964;2024-02-21T10:26:22;98069.78;;;8.64;84.27
54910;BME280;63189;51.240;9.964;2024-02-21T10:28:48;98069.53;;;8.76;83.82
54910;BME280;63189;51.240;9.964;2024-02-21T10:31:26;98065.44;;;8.66;83.05
54910;BME280;63189;51.240;9.964;2024-02-21T10:33:59;98069.59;;;8.73;82.44
54910;BME280;63189;51.240;9.964;2024-02-21T10:36:25;98060.91;;;8.74;84.07
54910;BME280;63189;51.240;9.964;2024-02-21T10:38:51;98044.09;;;8.90;83.77
54910;BME280;63189;51.240;9.964;2024-02-21T10:41:19;98028.06;;;9.09;83.55
54910;BME280;63189;51.240;9.964;2024-02-21T10:43:49;98038.66;;;9.38;85.39
54910;BME280;63189;51.240;9.964;2024-02-21T10:46:18;98029.72;;;9.47;83.50
54910;BME280;63189;51.240;9.964;2024-02-21T10:48:45;98027.44;;;9.35;82.25
54910;BME280;63189;51.240;9.964;2024-02-21T10:51:18;98035.09;;;9.41;82.62
54910;BME280;63189;51.240;9.964;2024-02-21T10:56:36;98023.66;;;9.12;83.04
54910;BME280;63189;51.240;9.964;2024-02-21T10:59:07;98027.41;;;9.01;82.07
54910;BME280;63189;51.240;9.964;2024-02-21T11:01:33;98031.16;;;8.87;83.27
54910;BME280;63189;51.240;9.964;2024-02-21T11:04:05;98027.72;;;8.85;83.53
54910;BME280;63189;51.240;9.964;2024-02-21T11:06:32;98008.78;;;8.80;85.57
54910;BME280;63189;51.240;9.964;2024-02-21T11:09:09;98022.75;;;8.76;85.26
54910;BME280;63189;51.240;9.964;2024-02-21T11:11:38;98008.91;;;8.76;87.25
54910;BME280;63189;51.240;9.964;2024-02-21T11:14:11;97996.16;;;8.65;87.45
54910;BME280;63189;51.240;9.964;2024-02-21T11:16:42;97988.56;;;8.54;87.47
54910;BME280;63189;51.240;9.964;2024-02-21T11:19:29;97992.75;;;8.61;88.96
54910;BME280;63189;51.240;9.964;2024-02-21T11:21:55;97991.59;;;8.34;87.36
54910;BME280;63189;51.240;9.964;2024-02-21T11:24:32;97989.03;;;8.31;87.63
54910;BME280;63189;51.240;9.964;2024-02-21T11:27:21;97977.00;;;8.27;88.71
54910;BME280;63189;51.240;9.964;2024-02-21T11:29:48;97968.56;;;8.16;89.19
54910;BME280;63189;51.240;9.964;2024-02-21T11:32:20;97973.16;;;8.02;88.74
54910;BME280;63189;51.240;9.964;2024-02-21T11:35:06;97964.66;;;7.95;90.57
54910;BME280;63189;51.240;9.964;2024-02-21T11:37:32;97965.44;;;7.99;91.04
54910;BME280;63189;51.240;9.964;2024-02-21T11:40:06;97960.41;;;7.93;91.96
54910;BME280;63189;51.240;9.964;2024-02-21T11:42:35;97952.94;;;7.76;92.50
54910;BME280;63189;51.240;9.964;2024-02-21T11:45:00;97953.84;;;7.73;93.05
54910;BME280;63189;51.240;9.964;2024-02-21T11:47:28;97947.75;;;7.76;93.61
54910;BME280;63189;51.240;9.964;2024-02-21T11:49:54;97941.75;;;7.72;93.16
54910;BME280;63189;51.240;9.964;2024-02-21T11:52:21;97952.03;;;7.77;92.61
54910;BME280;63189;51.240;9.964;2024-02-21T11:54:50;97933.03;;;7.76;93.50
54910;BME280;63189;51.240;9.964;2024-02-21T11:57:15;97918.31;;;7.77;93.88
54910;BME280;63189;51.240;9.964;2024-02-21T11:59:41;97929.50;;;7.79;93.38
54910;BME280;63189;51.240;9.964;2024-02-21T12:02:06;97910.59;;;7.74;93.41
54910;BME280;63189;51.240;9.964;2024-02-21T12:04:32;97913.28;;;7.68;92.59
54910;BME280;63189;51.240;9.964;2024-02-21T12:06:57;97898.53;;;7.71;91.88
54910;BME280;63189;51.240;9.964;2024-02-21T12:09:24;97906.47;;;7.64;91.23
54910;BME280;63189;51.240;9.964;2024-02-21T12:14:25;97885.72;;;7.64;91.46
54910;BME280;63189;51.240;9.964;2024-02-21T12:16:50;97888.34;;;7.61;91.77
54910;BME280;63189;51.240;9.964;2024-02-21T12:19:16;97877.19;;;7.57;92.47
54910;BME280;63189;51.240;9.964;2024-02-21T12:21:42;97868.69;;;7.50;92.17
54910;BME280;63189;51.240;9.964;2024-02-21T12:24:15;97864.94;;;7.64;93.72
54910;BME280;63189;51.240;9.964;2024-02-21T12:26:41;97865.03;;;7.59;92.58
54910;BME280;63189;51.240;9.964;2024-02-21T12:29:07;97859.00;;;7.57;90.92
54910;BME280;63189;51.240;9.964;2024-02-21T12:31:35;97851.88;;;7.68;93.35
54910;BME280;63189;51.240;9.964;2024-02-21T12:34:01;97848.19;;;7.78;93.57
54910;BME280;63189;51.240;9.964;2024-02-21T12:36:26;97842.16;;;7.78;91.55
54910;BME280;63189;51.240;9.964;2024-02-21T12:38:51;97844.72;;;7.79;90.73
54910;BME280;63189;51.240;9.964;2024-02-21T12:41:17;97846.22;;;7.90;91.74
54910;BME280;63189;51.240;9.964;2024-02-21T12:43:42;97844.44;;;7.92;91.03
54910;BME280;63189;51.240;9.964;2024-02-21T12:46:07;97843.63;;;7.90;88.51
54910;BME280;63189;51.240;9.964;2024-02-21T12:48:33;97833.97;;;7.96;88.16
54910;BME280;63189;51.240;9.964;2024-02-21T12:50:59;97820.84;;;8.04;89.72
54910;BME280;63189;51.240;9.964;2024-02-21T12:53:24;97820.88;;;8.01;86.46
54910;BME280;63189;51.240;9.964;2024-02-21T12:55:50;97827.03;;;7.97;86.96
54910;BME280;63189;51.240;9.964;2024-02-21T12:58:15;97825.41;;;7.93;87.04
54910;BME280;63189;51.240;9.964;2024-02-21T13:00:41;97828.81;;;7.95;87.99
54910;BME280;63189;51.240;9.964;2024-02-21T13:03:07;97823.50;;;7.99;87.04